Avondale, Maryland
Current Conditions -  °F | °C
As of 11:40 AM on Monday 24 Nov 2014 (Local Time) from KCGS Reporting Station
Overcast Overcast  
Wind Chill: 19°   Ceiling: 3100
Heat Index: 19°   Visibility: 10mi
Dew Point: 14°   Wind: 8mph
Humidity: 73%   Direction: 190°S
Pressure: 29.66"   Gusts: NA
Location:  38.9677°N, 76.9584°W
Report Text: KCGS 241640Z AUTO 19007KT 10SM OVC031 19/14 A2966 RMK AO1
Loading
Personal Weather Stations






























Interactive Weather Map New forecast layout! Learn more

10-Day Weather Forecast

Advertisements
Track Severe Weather on mobile